sensor_id;sensor_type;location;lat;lon;timestamp;P1;durP1;ratioP1;P2;durP2;ratioP2
5876;SDS011;2964;42.144;24.730;2023-06-14T00:00:33;11.17;;;10.17;;
5876;SDS011;2964;42.144;24.730;2023-06-14T00:03:00;9.87;;;9.30;;
5876;SDS011;2964;42.144;24.730;2023-06-14T00:05:27;9.80;;;9.20;;
5876;SDS011;2964;42.144;24.730;2023-06-14T00:07:54;10.30;;;9.60;;
5876;SDS011;2964;42.144;24.730;2023-06-14T00:10:21;13.57;;;10.37;;
5876;SDS011;2964;42.144;24.730;2023-06-14T00:12:49;10.70;;;10.03;;
5876;SDS011;2964;42.144;24.730;2023-06-14T00:15:16;10.53;;;9.77;;
5876;SDS011;2964;42.144;24.730;2023-06-14T00:17:42;13.33;;;10.53;;
5876;SDS011;2964;42.144;24.730;2023-06-14T00:20:12;10.73;;;9.63;;
5876;SDS011;2964;42.144;24.730;2023-06-14T00:22:39;10.80;;;10.03;;
5876;SDS011;2964;42.144;24.730;2023-06-14T00:25:06;10.33;;;9.83;;
5876;SDS011;2964;42.144;24.730;2023-06-14T00:27:33;11.27;;;10.30;;
5876;SDS011;2964;42.144;24.730;2023-06-14T00:30:01;10.67;;;9.90;;
5876;SDS011;2964;42.144;24.730;2023-06-14T00:32:28;10.40;;;9.60;;
5876;SDS011;2964;42.144;24.730;2023-06-14T00:34:54;10.30;;;9.60;;
5876;SDS011;2964;42.144;24.730;2023-06-14T00:37:21;11.17;;;10.10;;
5876;SDS011;2964;42.144;24.730;2023-06-14T00:39:48;11.03;;;10.00;;
5876;SDS011;2964;42.144;24.730;2023-06-14T00:42:22;10.10;;;9.50;;
5876;SDS011;2964;42.144;24.730;2023-06-14T00:44:50;10.93;;;10.13;;
5876;SDS011;2964;42.144;24.730;2023-06-14T00:47:18;10.87;;;10.07;;
5876;SDS011;2964;42.144;24.730;2023-06-14T00:49:45;10.20;;;9.63;;
5876;SDS011;2964;42.144;24.730;2023-06-14T00:52:12;11.40;;;10.50;;
5876;SDS011;2964;42.144;24.730;2023-06-14T00:54:39;10.53;;;9.90;;
5876;SDS011;2964;42.144;24.730;2023-06-14T00:57:06;10.67;;;9.87;;
5876;SDS011;2964;42.144;24.730;2023-06-14T00:59:33;10.67;;;10.07;;
5876;SDS011;2964;42.144;24.730;2023-06-14T01:02:01;11.90;;;10.90;;
5876;SDS011;2964;42.144;24.730;2023-06-14T01:04:29;11.33;;;10.53;;
5876;SDS011;2964;42.144;24.730;2023-06-14T01:06:57;10.97;;;10.23;;
5876;SDS011;2964;42.144;24.730;2023-06-14T01:09:37;10.77;;;10.03;;
5876;SDS011;2964;42.144;24.730;2023-06-14T01:12:15;11.10;;;10.40;;
5876;SDS011;2964;42.144;24.730;2023-06-14T01:14:45;12.77;;;10.33;;
5876;SDS011;2964;42.144;24.730;2023-06-14T01:17:14;10.80;;;10.10;;
5876;SDS011;2964;42.144;24.730;2023-06-14T01:19:43;10.80;;;10.10;;
5876;SDS011;2964;42.144;24.730;2023-06-14T01:22:11;11.63;;;10.83;;
5876;SDS011;2964;42.144;24.730;2023-06-14T01:24:39;11.23;;;10.10;;
5876;SDS011;2964;42.144;24.730;2023-06-14T01:27:11;11.50;;;10.40;;
5876;SDS011;2964;42.144;24.730;2023-06-14T01:29:40;10.63;;;10.03;;
5876;SDS011;2964;42.144;24.730;2023-06-14T01:32:10;11.03;;;10.33;;
5876;SDS011;2964;42.144;24.730;2023-06-14T01:34:37;11.80;;;11.00;;
5876;SDS011;2964;42.144;24.730;2023-06-14T01:37:04;12.10;;;11.17;;
5876;SDS011;2964;42.144;24.730;2023-06-14T01:39:31;11.90;;;10.93;;
5876;SDS011;2964;42.144;24.730;2023-06-14T01:42:01;11.27;;;10.43;;
5876;SDS011;2964;42.144;24.730;2023-06-14T01:44:28;12.10;;;11.03;;
5876;SDS011;2964;42.144;24.730;2023-06-14T01:46:56;11.30;;;10.67;;
5876;SDS011;2964;42.144;24.730;2023-06-14T01:49:23;11.43;;;10.70;;
5876;SDS011;2964;42.144;24.730;2023-06-14T01:51:50;12.13;;;11.23;;
5876;SDS011;2964;42.144;24.730;2023-06-14T01:54:16;11.30;;;10.57;;
5876;SDS011;2964;42.144;24.730;2023-06-14T01:56:43;11.50;;;10.70;;
5876;SDS011;2964;42.144;24.730;2023-06-14T01:59:11;12.40;;;10.90;;
5876;SDS011;2964;42.144;24.730;2023-06-14T02:01:38;10.93;;;10.20;;
5876;SDS011;2964;42.144;24.730;2023-06-14T02:04:04;11.60;;;10.77;;
5876;SDS011;2964;42.144;24.730;2023-06-14T02:06:31;12.43;;;11.23;;
5876;SDS011;2964;42.144;24.730;2023-06-14T02:09:00;11.53;;;10.67;;
5876;SDS011;2964;42.144;24.730;2023-06-14T02:11:28;11.27;;;10.53;;
5876;SDS011;2964;42.144;24.730;2023-06-14T02:13:54;11.93;;;11.00;;
5876;SDS011;2964;42.144;24.730;2023-06-14T02:16:22;11.27;;;10.30;;
5876;SDS011;2964;42.144;24.730;2023-06-14T02:18:49;11.37;;;10.77;;
5876;SDS011;2964;42.144;24.730;2023-06-14T02:21:16;10.97;;;10.37;;
5876;SDS011;2964;42.144;24.730;2023-06-14T02:23:43;12.00;;;11.07;;
5876;SDS011;2964;42.144;24.730;2023-06-14T02:26:10;13.03;;;11.50;;
5876;SDS011;2964;42.144;24.730;2023-06-14T02:28:36;11.77;;;10.97;;
5876;SDS011;2964;42.144;24.730;2023-06-14T02:31:03;11.37;;;10.50;;
5876;SDS011;2964;42.144;24.730;2023-06-14T02:33:31;11.80;;;10.90;;
5876;SDS011;2964;42.144;24.730;2023-06-14T02:35:58;11.20;;;10.50;;
5876;SDS011;2964;42.144;24.730;2023-06-14T02:38:24;10.57;;;9.97;;
5876;SDS011;2964;42.144;24.730;2023-06-14T02:40:51;11.23;;;10.40;;
5876;SDS011;2964;42.144;24.730;2023-06-14T02:43:18;10.73;;;9.93;;
5876;SDS011;2964;42.144;24.730;2023-06-14T02:45:45;11.33;;;10.43;;
5876;SDS011;2964;42.144;24.730;2023-06-14T02:48:11;12.50;;;11.40;;
5876;SDS011;2964;42.144;24.730;2023-06-14T02:50:39;11.70;;;11.00;;
5876;SDS011;2964;42.144;24.730;2023-06-14T02:53:06;11.40;;;10.50;;
5876;SDS011;2964;42.144;24.730;2023-06-14T02:55:33;11.13;;;10.37;;
5876;SDS011;2964;42.144;24.730;2023-06-14T02:58:04;10.80;;;9.90;;
5876;SDS011;2964;42.144;24.730;2023-06-14T03:00:31;10.97;;;10.17;;
5876;SDS011;2964;42.144;24.730;2023-06-14T03:02:58;11.27;;;10.50;;
5876;SDS011;2964;42.144;24.730;2023-06-14T03:05:26;10.53;;;9.83;;
5876;SDS011;2964;42.144;24.730;2023-06-14T03:07:54;11.13;;;10.13;;
5876;SDS011;2964;42.144;24.730;2023-06-14T03:10:22;10.77;;;9.57;;
5876;SDS011;2964;42.144;24.730;2023-06-14T03:12:48;10.00;;;9.13;;
5876;SDS011;2964;42.144;24.730;2023-06-14T03:15:16;14.17;;;10.07;;
5876;SDS011;2964;42.144;24.730;2023-06-14T03:17:44;9.90;;;9.20;;
5876;SDS011;2964;42.144;24.730;2023-06-14T03:20:11;10.27;;;9.67;;
5876;SDS011;2964;42.144;24.730;2023-06-14T03:22:37;11.37;;;10.33;;
5876;SDS011;2964;42.144;24.730;2023-06-14T03:25:06;9.73;;;9.23;;
5876;SDS011;2964;42.144;24.730;2023-06-14T03:27:34;11.33;;;10.37;;
5876;SDS011;2964;42.144;24.730;2023-06-14T03:30:01;11.47;;;9.73;;
5876;SDS011;2964;42.144;24.730;2023-06-14T03:32:28;10.87;;;10.17;;
5876;SDS011;2964;42.144;24.730;2023-06-14T03:34:58;10.90;;;10.20;;
5876;SDS011;2964;42.144;24.730;2023-06-14T03:37:24;12.03;;;10.93;;
5876;SDS011;2964;42.144;24.730;2023-06-14T03:39:51;12.93;;;10.37;;
5876;SDS011;2964;42.144;24.730;2023-06-14T03:42:19;11.13;;;10.27;;
5876;SDS011;2964;42.144;24.730;2023-06-14T03:44:46;12.00;;;10.67;;
5876;SDS011;2964;42.144;24.730;2023-06-14T03:47:12;11.57;;;10.47;;
5876;SDS011;2964;42.144;24.730;2023-06-14T03:49:40;12.07;;;11.07;;
5876;SDS011;2964;42.144;24.730;2023-06-14T03:52:06;13.13;;;11.80;;
5876;SDS011;2964;42.144;24.730;2023-06-14T03:54:33;13.07;;;11.97;;
5876;SDS011;2964;42.144;24.730;2023-06-14T03:57:00;12.00;;;10.87;;
5876;SDS011;2964;42.144;24.730;2023-06-14T03:59:28;13.53;;;12.27;;
5876;SDS011;2964;42.144;24.730;2023-06-14T04:01:54;12.70;;;11.50;;
5876;SDS011;2964;42.144;24.730;2023-06-14T04:04:21;11.50;;;10.70;;
5876;SDS011;2964;42.144;24.730;2023-06-14T04:06:53;12.43;;;11.10;;
5876;SDS011;2964;42.144;24.730;2023-06-14T04:09:20;11.70;;;10.90;;
5876;SDS011;2964;42.144;24.730;2023-06-14T04:11:47;13.10;;;11.73;;
5876;SDS011;2964;42.144;24.730;2023-06-14T04:14:13;16.77;;;11.03;;
5876;SDS011;2964;42.144;24.730;2023-06-14T04:16:41;12.97;;;11.37;;
5876;SDS011;2964;42.144;24.730;2023-06-14T04:19:08;11.80;;;10.93;;
5876;SDS011;2964;42.144;24.730;2023-06-14T04:21:35;42.93;;;15.10;;
5876;SDS011;2964;42.144;24.730;2023-06-14T04:24:01;12.33;;;11.23;;
5876;SDS011;2964;42.144;24.730;2023-06-14T04:26:28;13.03;;;12.00;;
5876;SDS011;2964;42.144;24.730;2023-06-14T04:28:58;12.00;;;11.20;;
5876;SDS011;2964;42.144;24.730;2023-06-14T04:31:26;11.97;;;10.97;;
5876;SDS011;2964;42.144;24.730;2023-06-14T04:33:55;12.80;;;10.30;;
5876;SDS011;2964;42.144;24.730;2023-06-14T04:36:22;11.30;;;10.20;;
5876;SDS011;2964;42.144;24.730;2023-06-14T04:38:50;11.23;;;10.33;;
5876;SDS011;2964;42.144;24.730;2023-06-14T04:41:19;10.30;;;9.60;;
5876;SDS011;2964;42.144;24.730;2023-06-14T04:43:48;14.00;;;12.07;;
5876;SDS011;2964;42.144;24.730;2023-06-14T04:46:14;11.40;;;10.47;;
5876;SDS011;2964;42.144;24.730;2023-06-14T04:48:42;11.63;;;10.60;;
5876;SDS011;2964;42.144;24.730;2023-06-14T04:51:10;10.83;;;10.00;;
5876;SDS011;2964;42.144;24.730;2023-06-14T04:53:38;11.37;;;10.37;;
5876;SDS011;2964;42.144;24.730;2023-06-14T04:56:04;10.90;;;9.87;;
5876;SDS011;2964;42.144;24.730;2023-06-14T04:58:32;15.10;;;10.83;;
5876;SDS011;2964;42.144;24.730;2023-06-14T05:00:59;14.37;;;11.80;;
5876;SDS011;2964;42.144;24.730;2023-06-14T05:03:26;13.87;;;11.57;;
5876;SDS011;2964;42.144;24.730;2023-06-14T05:05:55;12.80;;;11.70;;
5876;SDS011;2964;42.144;24.730;2023-06-14T05:08:23;12.07;;;10.97;;
5876;SDS011;2964;42.144;24.730;2023-06-14T05:10:50;12.97;;;10.40;;
5876;SDS011;2964;42.144;24.730;2023-06-14T05:13:17;11.57;;;10.67;;
5876;SDS011;2964;42.144;24.730;2023-06-14T05:15:44;13.53;;;12.10;;
5876;SDS011;2964;42.144;24.730;2023-06-14T05:18:11;14.17;;;13.07;;
5876;SDS011;2964;42.144;24.730;2023-06-14T05:20:38;14.70;;;13.17;;
5876;SDS011;2964;42.144;24.730;2023-06-14T05:23:06;14.83;;;13.53;;
5876;SDS011;2964;42.144;24.730;2023-06-14T05:25:34;13.87;;;11.83;;
5876;SDS011;2964;42.144;24.730;2023-06-14T05:28:01;14.57;;;12.07;;
5876;SDS011;2964;42.144;24.730;2023-06-14T05:30:28;21.10;;;13.40;;
5876;SDS011;2964;42.144;24.730;2023-06-14T05:32:55;15.13;;;13.83;;
5876;SDS011;2964;42.144;24.730;2023-06-14T05:35:22;15.73;;;14.53;;
5876;SDS011;2964;42.144;24.730;2023-06-14T05:37:51;14.77;;;13.37;;
5876;SDS011;2964;42.144;24.730;2023-06-14T05:40:18;16.93;;;13.73;;
5876;SDS011;2964;42.144;24.730;2023-06-14T05:42:47;18.63;;;14.20;;
5876;SDS011;2964;42.144;24.730;2023-06-14T05:45:13;16.00;;;14.37;;
5876;SDS011;2964;42.144;24.730;2023-06-14T05:47:41;17.30;;;15.77;;
5876;SDS011;2964;42.144;24.730;2023-06-14T05:50:08;16.40;;;14.70;;
5876;SDS011;2964;42.144;24.730;2023-06-14T05:52:35;17.87;;;16.07;;
5876;SDS011;2964;42.144;24.730;2023-06-14T05:55:02;17.53;;;15.93;;
5876;SDS011;2964;42.144;24.730;2023-06-14T05:57:29;18.53;;;16.40;;
5876;SDS011;2964;42.144;24.730;2023-06-14T05:59:57;21.80;;;15.73;;
5876;SDS011;2964;42.144;24.730;2023-06-14T06:02:25;17.60;;;16.30;;
5876;SDS011;2964;42.144;24.730;2023-06-14T06:04:51;19.03;;;16.93;;
5876;SDS011;2964;42.144;24.730;2023-06-14T06:07:18;19.37;;;17.47;;
5876;SDS011;2964;42.144;24.730;2023-06-14T06:09:45;18.97;;;17.27;;
5876;SDS011;2964;42.144;24.730;2023-06-14T06:12:11;18.17;;;16.40;;
5876;SDS011;2964;42.144;24.730;2023-06-14T06:14:38;18.87;;;17.13;;
5876;SDS011;2964;42.144;24.730;2023-06-14T06:17:06;18.80;;;17.03;;
5876;SDS011;2964;42.144;24.730;2023-06-14T06:19:33;19.43;;;17.53;;
5876;SDS011;2964;42.144;24.730;2023-06-14T06:21:59;18.93;;;17.30;;
5876;SDS011;2964;42.144;24.730;2023-06-14T06:24:26;18.35;;;16.67;;
5876;SDS011;2964;42.144;24.730;2023-06-14T06:26:52;26.20;;;17.67;;
5876;SDS011;2964;42.144;24.730;2023-06-14T06:29:19;21.25;;;18.27;;
5876;SDS011;2964;42.144;24.730;2023-06-14T06:31:46;18.70;;;16.80;;
5876;SDS011;2964;42.144;24.730;2023-06-14T06:34:14;19.15;;;16.08;;
5876;SDS011;2964;42.144;24.730;2023-06-14T06:36:41;17.48;;;15.82;;
5876;SDS011;2964;42.144;24.730;2023-06-14T06:39:08;15.27;;;14.02;;
5876;SDS011;2964;42.144;24.730;2023-06-14T06:41:35;16.17;;;14.65;;
5876;SDS011;2964;42.144;24.730;2023-06-14T06:44:04;17.48;;;15.60;;
5876;SDS011;2964;42.144;24.730;2023-06-14T06:46:31;20.83;;;15.07;;
5876;SDS011;2964;42.144;24.730;2023-06-14T06:48:58;14.77;;;13.45;;
5876;SDS011;2964;42.144;24.730;2023-06-14T06:51:26;15.60;;;13.95;;
5876;SDS011;2964;42.144;24.730;2023-06-14T06:53:53;14.82;;;13.30;;
5876;SDS011;2964;42.144;24.730;2023-06-14T06:56:20;14.88;;;13.30;;
5876;SDS011;2964;42.144;24.730;2023-06-14T06:58:48;14.57;;;12.07;;
5876;SDS011;2964;42.144;24.730;2023-06-14T07:01:15;14.20;;;13.25;;
5876;SDS011;2964;42.144;24.730;2023-06-14T07:03:42;14.60;;;13.43;;
5876;SDS011;2964;42.144;24.730;2023-06-14T07:06:08;14.20;;;12.98;;
5876;SDS011;2964;42.144;24.730;2023-06-14T07:08:37;13.77;;;12.50;;
5876;SDS011;2964;42.144;24.730;2023-06-14T07:11:04;14.80;;;13.35;;
5876;SDS011;2964;42.144;24.730;2023-06-14T07:13:32;17.60;;;16.10;;
5876;SDS011;2964;42.144;24.730;2023-06-14T07:15:59;14.43;;;13.27;;
5876;SDS011;2964;42.144;24.730;2023-06-14T07:18:26;13.77;;;12.80;;
5876;SDS011;2964;42.144;24.730;2023-06-14T07:20:53;14.15;;;12.90;;
5876;SDS011;2964;42.144;24.730;2023-06-14T07:23:21;14.90;;;13.43;;
5876;SDS011;2964;42.144;24.730;2023-06-14T07:25:49;13.43;;;12.05;;
5876;SDS011;2964;42.144;24.730;2023-06-14T07:28:15;14.18;;;13.18;;
5876;SDS011;2964;42.144;24.730;2023-06-14T07:30:42;14.50;;;12.55;;
5876;SDS011;2964;42.144;24.730;2023-06-14T07:33:09;16.75;;;12.70;;
5876;SDS011;2964;42.144;24.730;2023-06-14T07:35:37;14.38;;;13.10;;
5876;SDS011;2964;42.144;24.730;2023-06-14T07:38:04;15.50;;;14.02;;
5876;SDS011;2964;42.144;24.730;2023-06-14T07:40:30;16.13;;;14.63;;
5876;SDS011;2964;42.144;24.730;2023-06-14T07:42:58;20.27;;;15.90;;
5876;SDS011;2964;42.144;24.730;2023-06-14T07:45:26;16.45;;;14.93;;
5876;SDS011;2964;42.144;24.730;2023-06-14T07:47:53;16.50;;;14.90;;
5876;SDS011;2964;42.144;24.730;2023-06-14T07:50:20;16.58;;;15.38;;
5876;SDS011;2964;42.144;24.730;2023-06-14T07:52:46;18.02;;;16.17;;
5876;SDS011;2964;42.144;24.730;2023-06-14T07:55:14;17.50;;;16.08;;
5876;SDS011;2964;42.144;24.730;2023-06-14T07:57:41;17.73;;;16.08;;
5876;SDS011;2964;42.144;24.730;2023-06-14T08:00:11;15.13;;;14.00;;
5876;SDS011;2964;42.144;24.730;2023-06-14T08:02:40;15.80;;;14.65;;
5876;SDS011;2964;42.144;24.730;2023-06-14T08:05:08;14.80;;;13.38;;
5876;SDS011;2964;42.144;24.730;2023-06-14T08:07:36;17.70;;;15.70;;
5876;SDS011;2964;42.144;24.730;2023-06-14T08:10:02;15.18;;;13.98;;
5876;SDS011;2964;42.144;24.730;2023-06-14T08:12:29;15.50;;;14.07;;
5876;SDS011;2964;42.144;24.730;2023-06-14T08:14:56;15.10;;;13.77;;
5876;SDS011;2964;42.144;24.730;2023-06-14T08:17:24;15.60;;;14.23;;
5876;SDS011;2964;42.144;24.730;2023-06-14T08:19:51;14.65;;;13.50;;
5876;SDS011;2964;42.144;24.730;2023-06-14T08:22:19;14.70;;;13.55;;
5876;SDS011;2964;42.144;24.730;2023-06-14T08:24:46;15.90;;;14.02;;
5876;SDS011;2964;42.144;24.730;2023-06-14T08:27:13;14.45;;;12.90;;
5876;SDS011;2964;42.144;24.730;2023-06-14T08:29:40;14.63;;;13.63;;
5876;SDS011;2964;42.144;24.730;2023-06-14T08:32:07;15.73;;;14.25;;
5876;SDS011;2964;42.144;24.730;2023-06-14T08:34:35;15.07;;;13.55;;
5876;SDS011;2964;42.144;24.730;2023-06-14T08:37:02;13.55;;;12.30;;
5876;SDS011;2964;42.144;24.730;2023-06-14T08:39:29;13.30;;;12.40;;
5876;SDS011;2964;42.144;24.730;2023-06-14T08:41:55;14.65;;;13.38;;
5876;SDS011;2964;42.144;24.730;2023-06-14T08:44:23;14.35;;;13.15;;
5876;SDS011;2964;42.144;24.730;2023-06-14T08:46:50;13.10;;;12.20;;
5876;SDS011;2964;42.144;24.730;2023-06-14T08:49:18;14.63;;;13.45;;
5876;SDS011;2964;42.144;24.730;2023-06-14T08:51:47;16.02;;;14.25;;
5876;SDS011;2964;42.144;24.730;2023-06-14T08:54:20;14.60;;;13.23;;
5876;SDS011;2964;42.144;24.730;2023-06-14T08:56:47;16.33;;;14.90;;
5876;SDS011;2964;42.144;24.730;2023-06-14T08:59:13;13.68;;;12.77;;
5876;SDS011;2964;42.144;24.730;2023-06-14T09:01:43;14.45;;;13.32;;
5876;SDS011;2964;42.144;24.730;2023-06-14T09:04:12;17.00;;;13.40;;
5876;SDS011;2964;42.144;24.730;2023-06-14T09:06:39;14.10;;;12.73;;
5876;SDS011;2964;42.144;24.730;2023-06-14T09:09:07;13.43;;;12.57;;
5876;SDS011;2964;42.144;24.730;2023-06-14T09:11:34;15.43;;;14.02;;
5876;SDS011;2964;42.144;24.730;2023-06-14T09:14:01;14.82;;;13.50;;
5876;SDS011;2964;42.144;24.730;2023-06-14T09:16:28;14.77;;;13.27;;
5876;SDS011;2964;42.144;24.730;2023-06-14T09:18:55;15.70;;;14.27;;
5876;SDS011;2964;42.144;24.730;2023-06-14T09:21:21;14.75;;;13.85;;
5876;SDS011;2964;42.144;24.730;2023-06-14T09:23:48;15.93;;;14.60;;
5876;SDS011;2964;42.144;24.730;2023-06-14T09:26:16;15.38;;;13.95;;
5876;SDS011;2964;42.144;24.730;2023-06-14T09:28:45;15.30;;;14.27;;
5876;SDS011;2964;42.144;24.730;2023-06-14T09:31:12;15.70;;;14.32;;
5876;SDS011;2964;42.144;24.730;2023-06-14T09:33:41;16.80;;;14.50;;
5876;SDS011;2964;42.144;24.730;2023-06-14T09:36:13;15.23;;;13.82;;
5876;SDS011;2964;42.144;24.730;2023-06-14T09:38:42;13.82;;;12.88;;
5876;SDS011;2964;42.144;24.730;2023-06-14T09:41:18;13.43;;;12.20;;
5876;SDS011;2964;42.144;24.730;2023-06-14T09:43:46;13.85;;;13.02;;
5876;SDS011;2964;42.144;24.730;2023-06-14T09:46:15;14.23;;;12.93;;
5876;SDS011;2964;42.144;24.730;2023-06-14T09:48:42;13.85;;;12.95;;
5876;SDS011;2964;42.144;24.730;2023-06-14T09:51:09;16.17;;;14.65;;
5876;SDS011;2964;42.144;24.730;2023-06-14T09:53:36;14.63;;;13.50;;
5876;SDS011;2964;42.144;24.730;2023-06-14T09:56:04;14.00;;;12.98;;
5876;SDS011;2964;42.144;24.730;2023-06-14T09:58:33;14.85;;;13.60;;
5876;SDS011;2964;42.144;24.730;2023-06-14T10:01:05;14.48;;;13.38;;
5876;SDS011;2964;42.144;24.730;2023-06-14T10:03:38;15.70;;;13.68;;
5876;SDS011;2964;42.144;24.730;2023-06-14T10:06:06;15.80;;;14.20;;
5876;SDS011;2964;42.144;24.730;2023-06-14T10:08:35;16.08;;;14.90;;
5876;SDS011;2964;42.144;24.730;2023-06-14T10:11:04;16.38;;;14.32;;
5876;SDS011;2964;42.144;24.730;2023-06-14T10:13:31;15.68;;;14.32;;
5876;SDS011;2964;42.144;24.730;2023-06-14T10:16:02;16.42;;;14.85;;
5876;SDS011;2964;42.144;24.730;2023-06-14T10:18:42;19.85;;;14.45;;
5876;SDS011;2964;42.144;24.730;2023-06-14T10:21:16;17.33;;;15.35;;
5876;SDS011;2964;42.144;24.730;2023-06-14T10:23:50;17.73;;;16.02;;
5876;SDS011;2964;42.144;24.730;2023-06-14T10:26:22;16.23;;;14.55;;
5876;SDS011;2964;42.144;24.730;2023-06-14T10:28:58;14.90;;;13.63;;
5876;SDS011;2964;42.144;24.730;2023-06-14T10:31:43;17.38;;;15.75;;
5876;SDS011;2964;42.144;24.730;2023-06-14T10:34:10;17.40;;;14.88;;
5876;SDS011;2964;42.144;24.730;2023-06-14T10:36:38;17.27;;;15.63;;
5876;SDS011;2964;42.144;24.730;2023-06-14T10:39:10;15.32;;;14.10;;
5876;SDS011;2964;42.144;24.730;2023-06-14T10:41:41;15.57;;;14.35;;
5876;SDS011;2964;42.144;24.730;2023-06-14T10:47:06;16.58;;;15.07;;
5876;SDS011;2964;42.144;24.730;2023-06-14T10:49:39;15.93;;;14.77;;
5876;SDS011;2964;42.144;24.730;2023-06-14T10:52:11;18.85;;;16.88;;
5876;SDS011;2964;42.144;24.730;2023-06-14T10:54:55;16.42;;;15.05;;
5876;SDS011;2964;42.144;24.730;2023-06-14T10:57:34;16.88;;;15.38;;
5876;SDS011;2964;42.144;24.730;2023-06-14T11:00:03;16.15;;;14.50;;
5876;SDS011;2964;42.144;24.730;2023-06-14T11:05:42;15.52;;;14.23;;
5876;SDS011;2964;42.144;24.730;2023-06-14T11:08:35;16.17;;;14.80;;
5876;SDS011;2964;42.144;24.730;2023-06-14T11:11:12;14.77;;;13.65;;
5876;SDS011;2964;42.144;24.730;2023-06-14T11:13:41;14.57;;;13.57;;
5876;SDS011;2964;42.144;24.730;2023-06-14T11:16:11;13.70;;;12.68;;
5876;SDS011;2964;42.144;24.730;2023-06-14T11:18:39;14.57;;;13.48;;
5876;SDS011;2964;42.144;24.730;2023-06-14T11:21:05;15.15;;;13.93;;
5876;SDS011;2964;42.144;24.730;2023-06-14T11:23:33;14.10;;;13.02;;
5876;SDS011;2964;42.144;24.730;2023-06-14T11:26:00;13.68;;;12.75;;
5876;SDS011;2964;42.144;24.730;2023-06-14T11:28:35;15.27;;;13.95;;
5876;SDS011;2964;42.144;24.730;2023-06-14T11:31:03;15.00;;;13.85;;
5876;SDS011;2964;42.144;24.730;2023-06-14T11:33:31;15.45;;;13.93;;
5876;SDS011;2964;42.144;24.730;2023-06-14T11:35:58;15.52;;;14.13;;
5876;SDS011;2964;42.144;24.730;2023-06-14T11:38:27;14.35;;;13.23;;
5876;SDS011;2964;42.144;24.730;2023-06-14T11:40:58;14.45;;;13.40;;
5876;SDS011;2964;42.144;24.730;2023-06-14T11:43:25;15.27;;;14.07;;
5876;SDS011;2964;42.144;24.730;2023-06-14T11:45:52;15.80;;;14.70;;
5876;SDS011;2964;42.144;24.730;2023-06-14T11:48:19;16.13;;;14.82;;
5876;SDS011;2964;42.144;24.730;2023-06-14T11:50:49;16.25;;;14.93;;
5876;SDS011;2964;42.144;24.730;2023-06-14T11:53:16;22.00;;;15.07;;
5876;SDS011;2964;42.144;24.730;2023-06-14T11:55:43;15.55;;;14.23;;
5876;SDS011;2964;42.144;24.730;2023-06-14T11:58:12;15.52;;;14.32;;
5876;SDS011;2964;42.144;24.730;2023-06-14T12:00:39;15.98;;;14.55;;
5876;SDS011;2964;42.144;24.730;2023-06-14T12:03:07;16.27;;;15.05;;
5876;SDS011;2964;42.144;24.730;2023-06-14T12:05:33;17.85;;;16.20;;
5876;SDS011;2964;42.144;24.730;2023-06-14T12:08:02;16.20;;;14.65;;
5876;SDS011;2964;42.144;24.730;2023-06-14T12:10:31;15.93;;;14.57;;
5876;SDS011;2964;42.144;24.730;2023-06-14T12:13:06;16.27;;;15.05;;
5876;SDS011;2964;42.144;24.730;2023-06-14T12:15:33;16.17;;;14.88;;
5876;SDS011;2964;42.144;24.730;2023-06-14T12:17:59;16.25;;;15.13;;
5876;SDS011;2964;42.144;24.730;2023-06-14T12:20:28;16.02;;;14.85;;
5876;SDS011;2964;42.144;24.730;2023-06-14T12:22:56;18.65;;;17.15;;
5876;SDS011;2964;42.144;24.730;2023-06-14T12:25:27;17.98;;;16.58;;
5876;SDS011;2964;42.144;24.730;2023-06-14T12:27:56;17.30;;;15.82;;
5876;SDS011;2964;42.144;24.730;2023-06-14T12:30:23;18.45;;;17.08;;
5876;SDS011;2964;42.144;24.730;2023-06-14T12:32:49;17.10;;;15.80;;
5876;SDS011;2964;42.144;24.730;2023-06-14T12:35:16;16.17;;;15.07;;
5876;SDS011;2964;42.144;24.730;2023-06-14T12:37:44;16.45;;;15.18;;
5876;SDS011;2964;42.144;24.730;2023-06-14T12:40:11;16.63;;;15.25;;
5876;SDS011;2964;42.144;24.730;2023-06-14T12:42:39;17.65;;;16.30;;
5876;SDS011;2964;42.144;24.730;2023-06-14T12:45:07;20.50;;;18.70;;
5876;SDS011;2964;42.144;24.730;2023-06-14T12:47:34;17.27;;;15.73;;
5876;SDS011;2964;42.144;24.730;2023-06-14T12:50:00;17.60;;;16.08;;
5876;SDS011;2964;42.144;24.730;2023-06-14T12:52:27;17.75;;;15.75;;
5876;SDS011;2964;42.144;24.730;2023-06-14T12:54:54;17.45;;;15.05;;
5876;SDS011;2964;42.144;24.730;2023-06-14T12:57:20;16.63;;;15.52;;
5876;SDS011;2964;42.144;24.730;2023-06-14T12:59:48;15.80;;;14.70;;
5876;SDS011;2964;42.144;24.730;2023-06-14T13:02:15;15.30;;;13.82;;
5876;SDS011;2964;42.144;24.730;2023-06-14T13:04:43;14.70;;;13.40;;
5876;SDS011;2964;42.144;24.730;2023-06-14T13:07:10;14.52;;;13.52;;
5876;SDS011;2964;42.144;24.730;2023-06-14T13:09:37;15.68;;;14.48;;
5876;SDS011;2964;42.144;24.730;2023-06-14T13:12:04;13.38;;;12.48;;
5876;SDS011;2964;42.144;24.730;2023-06-14T13:14:31;14.48;;;13.57;;
5876;SDS011;2964;42.144;24.730;2023-06-14T13:16:59;15.15;;;13.95;;
5876;SDS011;2964;42.144;24.730;2023-06-14T13:19:26;14.32;;;13.32;;
5876;SDS011;2964;42.144;24.730;2023-06-14T13:21:53;14.93;;;13.95;;
5876;SDS011;2964;42.144;24.730;2023-06-14T13:24:19;15.35;;;13.98;;
5876;SDS011;2964;42.144;24.730;2023-06-14T13:26:46;14.10;;;12.80;;
5876;SDS011;2964;42.144;24.730;2023-06-14T13:29:12;14.25;;;13.18;;
5876;SDS011;2964;42.144;24.730;2023-06-14T13:31:39;15.15;;;13.73;;
5876;SDS011;2964;42.144;24.730;2023-06-14T13:34:07;16.83;;;15.32;;
5876;SDS011;2964;42.144;24.730;2023-06-14T13:36:34;15.70;;;14.57;;
5876;SDS011;2964;42.144;24.730;2023-06-14T13:39:00;16.50;;;15.07;;
5876;SDS011;2964;42.144;24.730;2023-06-14T13:41:28;15.20;;;14.10;;
5876;SDS011;2964;42.144;24.730;2023-06-14T13:43:57;18.15;;;16.50;;
5876;SDS011;2964;42.144;24.730;2023-06-14T13:46:24;16.20;;;14.90;;
5876;SDS011;2964;42.144;24.730;2023-06-14T13:48:51;15.55;;;14.35;;
5876;SDS011;2964;42.144;24.730;2023-06-14T13:51:19;17.33;;;15.82;;
5876;SDS011;2964;42.144;24.730;2023-06-14T13:53:46;15.48;;;14.18;;
5876;SDS011;2964;42.144;24.730;2023-06-14T13:56:13;15.90;;;14.65;;
5876;SDS011;2964;42.144;24.730;2023-06-14T13:58:39;15.40;;;14.00;;
5876;SDS011;2964;42.144;24.730;2023-06-14T14:01:06;14.68;;;13.48;;
5876;SDS011;2964;42.144;24.730;2023-06-14T14:03:33;15.45;;;14.18;;
5876;SDS011;2964;42.144;24.730;2023-06-14T14:06:00;15.40;;;14.20;;
5876;SDS011;2964;42.144;24.730;2023-06-14T14:08:28;14.10;;;12.80;;
5876;SDS011;2964;42.144;24.730;2023-06-14T14:10:55;13.57;;;12.65;;
5876;SDS011;2964;42.144;24.730;2023-06-14T14:13:22;12.38;;;11.65;;
5876;SDS011;2964;42.144;24.730;2023-06-14T14:15:50;11.23;;;10.43;;
5876;SDS011;2964;42.144;24.730;2023-06-14T14:18:17;11.50;;;10.88;;
5876;SDS011;2964;42.144;24.730;2023-06-14T14:20:45;11.52;;;10.93;;
5876;SDS011;2964;42.144;24.730;2023-06-14T14:23:12;11.95;;;10.95;;
5876;SDS011;2964;42.144;24.730;2023-06-14T14:25:40;11.25;;;10.60;;
5876;SDS011;2964;42.144;24.730;2023-06-14T14:28:07;10.88;;;10.20;;
5876;SDS011;2964;42.144;24.730;2023-06-14T14:30:33;12.15;;;11.15;;
5876;SDS011;2964;42.144;24.730;2023-06-14T14:33:03;10.82;;;10.15;;
5876;SDS011;2964;42.144;24.730;2023-06-14T14:35:30;9.32;;;8.73;;
5876;SDS011;2964;42.144;24.730;2023-06-14T14:37:57;8.93;;;8.43;;
5876;SDS011;2964;42.144;24.730;2023-06-14T14:40:23;9.48;;;8.88;;
5876;SDS011;2964;42.144;24.730;2023-06-14T14:42:52;10.35;;;9.52;;
5876;SDS011;2964;42.144;24.730;2023-06-14T14:45:18;9.93;;;9.35;;